createdAt,value
2023-05-22T00:00:00.211Z,100364.63
2023-05-22T00:00:35.808Z,100364.94
2023-05-22T00:01:08.171Z,100358.97
2023-05-22T00:01:42.957Z,100363.31
2023-05-22T00:02:17.922Z,100362.50
2023-05-22T00:02:51.153Z,100365.50
2023-05-22T00:03:24.616Z,100360.88
2023-05-22T00:03:59.523Z,100369.34
2023-05-22T00:04:32.209Z,100360.38
2023-05-22T00:05:05.563Z,100363.38
2023-05-22T00:05:41.390Z,100363.38
2023-05-22T00:06:15.213Z,100365.59
2023-05-22T00:06:48.239Z,100364.00
2023-05-22T00:07:24.457Z,100367.00
2023-05-22T00:07:57.000Z,100359.13
2023-05-22T00:08:29.995Z,100356.41
2023-05-22T00:09:04.882Z,100360.25
2023-05-22T00:09:37.150Z,100361.63
2023-05-22T00:10:10.840Z,100357.81
2023-05-22T00:10:45.703Z,100364.34
2023-05-22T00:11:17.939Z,100360.81
2023-05-22T00:11:50.150Z,100360.00
2023-05-22T00:12:25.320Z,100359.19
2023-05-22T00:12:57.663Z,100360.63
2023-05-22T00:13:29.903Z,100355.19
2023-05-22T00:14:04.972Z,100358.19
2023-05-22T00:14:37.235Z,100361.22
2023-05-22T00:15:12.591Z,100354.66
2023-05-22T00:15:47.446Z,100360.41
2023-05-22T00:16:19.756Z,100359.59
2023-05-22T00:16:55.704Z,100362.31
2023-05-22T00:17:30.986Z,100361.75
2023-05-22T00:18:04.230Z,100356.31
2023-05-22T00:18:42.558Z,100350.88
2023-05-22T00:19:17.417Z,100358.53
2023-05-22T00:19:49.761Z,100352.28
2023-05-22T00:20:24.539Z,100350.41
2023-05-22T00:20:58.199Z,100347.69
2023-05-22T00:21:35.184Z,100346.88
2023-05-22T00:22:10.043Z,100354.47
2023-05-22T00:22:42.523Z,100354.47
2023-05-22T00:23:15.648Z,100355.00
2023-05-22T00:23:50.617Z,100360.72
2023-05-22T00:24:22.915Z,100351.78
2023-05-22T00:24:55.313Z,100357.19
2023-05-22T00:25:30.082Z,100358.31
2023-05-22T00:26:02.363Z,100360.50
2023-05-22T00:26:34.558Z,100355.88
2023-05-22T00:27:09.615Z,100353.47
2023-05-22T00:27:42.096Z,100349.94
2023-05-22T00:28:14.464Z,100353.78
2023-05-22T00:28:49.246Z,100352.16
2023-05-22T00:29:21.507Z,100353.25
2023-05-22T00:29:53.800Z,100357.06
2023-05-22T00:30:31.165Z,100351.13
2023-05-22T00:31:03.748Z,100351.41
2023-05-22T00:31:36.022Z,100350.59
2023-05-22T00:32:10.981Z,100354.13
2023-05-22T00:32:43.341Z,100357.13
2023-05-22T00:33:16.314Z,100350.91
2023-05-22T00:33:51.214Z,100353.63
2023-05-22T00:34:23.515Z,100347.66
2023-05-22T00:34:55.946Z,100356.63
2023-05-22T00:35:30.782Z,100352.28
2023-05-22T00:36:03.083Z,100348.78
2023-05-22T00:36:35.289Z,100351.47
2023-05-22T00:37:10.949Z,100347.97
2023-05-22T00:37:44.962Z,100341.72
2023-05-22T00:38:29.909Z,100347.47
2023-05-22T00:39:05.129Z,100354.78
2023-05-22T00:39:37.641Z,100350.47
2023-05-22T00:40:11.330Z,100350.19
2023-05-22T00:40:43.567Z,100348.56
2023-05-22T00:41:18.495Z,100353.16
2023-05-22T00:41:51.778Z,100353.47
2023-05-22T00:42:24.340Z,100352.66
2023-05-22T00:42:59.409Z,100352.66
2023-05-22T00:43:33.251Z,100351.34
2023-05-22T00:44:05.925Z,100351.34
2023-05-22T00:44:38.350Z,100348.63
2023-05-22T00:45:14.530Z,100344.28
2023-05-22T00:45:49.420Z,100353.56
2023-05-22T00:46:23.088Z,100340.78
2023-05-22T00:46:58.269Z,100342.69
2023-05-22T00:47:30.587Z,100345.41
2023-05-22T00:48:02.857Z,100344.28
2023-05-22T00:48:37.760Z,100347.00
2023-05-22T00:49:09.977Z,100345.69
2023-05-22T00:49:43.270Z,100341.88
2023-05-22T00:50:19.129Z,100345.97
2023-05-22T00:50:52.306Z,100347.88
2023-05-22T00:51:25.192Z,100344.38
2023-05-22T00:52:00.616Z,100344.38
2023-05-22T00:52:33.734Z,100348.19
2023-05-22T00:53:06.028Z,100338.41
2023-05-22T00:53:41.115Z,100341.13
2023-05-22T00:54:13.644Z,100347.66
2023-05-22T00:54:47.142Z,100346.03
2023-05-22T00:55:22.118Z,100343.31
2023-05-22T00:55:54.897Z,100341.72
2023-05-22T00:56:27.356Z,100338.22
2023-05-22T00:57:03.851Z,100339.28
2023-05-22T00:57:38.591Z,100346.63
2023-05-22T00:58:15.363Z,100336.06
2023-05-22T00:58:50.219Z,100345.59
2023-05-22T00:59:22.648Z,100337.47
2023-05-22T00:59:55.021Z,100343.69
2023-05-22T01:00:29.866Z,100341.78
2023-05-22T01:01:07.847Z,100342.06
2023-05-22T01:01:43.084Z,100343.47
2023-05-22T01:02:18.771Z,100339.97
2023-05-22T01:02:51.516Z,100339.16
2023-05-22T01:03:27.251Z,100343.47
2023-05-22T01:04:05.201Z,100343.47
2023-05-22T01:04:37.560Z,100341.03
2023-05-22T01:05:13.578Z,100339.16
2023-05-22T01:05:48.555Z,100341.31
2023-05-22T01:06:21.727Z,100335.91
2023-05-22T01:06:54.389Z,100335.91
2023-05-22T01:07:30.505Z,100341.31
2023-05-22T01:08:03.161Z,100340.53
2023-05-22T01:08:35.458Z,100340.53
2023-05-22T01:09:10.985Z,100335.13
2023-05-22T01:09:43.299Z,100339.22
2023-05-22T01:10:15.602Z,100339.22
2023-05-22T01:10:56.331Z,100341.31
2023-05-22T01:11:36.416Z,100337.91
2023-05-22T01:12:23.356Z,100338.47
2023-05-22T01:13:05.038Z,100333.09
2023-05-22T01:13:46.845Z,100339.63
2023-05-22T01:14:28.576Z,100331.78
2023-05-22T01:15:09.088Z,100343.72
2023-05-22T01:15:47.899Z,100339.38
2023-05-22T01:16:31.042Z,100336.69
2023-05-22T01:17:11.786Z,100331.84
2023-05-22T01:17:53.350Z,100334.56
2023-05-22T01:18:35.322Z,100332.94
2023-05-22T01:19:22.228Z,100334.06
2023-05-22T01:20:10.640Z,100332.72
2023-05-22T01:20:51.425Z,100331.09
2023-05-22T01:21:33.085Z,100334.59
2023-05-22T01:22:21.640Z,100330.31
2023-05-22T01:23:33.637Z,100334.16
2023-05-22T01:24:42.394Z,100330.41
2023-05-22T01:25:39.335Z,100328.25
2023-05-22T01:26:29.230Z,100335.63
2023-05-22T01:27:35.454Z,100335.34
2023-05-22T01:28:31.075Z,100343.00
2023-05-22T01:29:18.508Z,100335.13
2023-05-22T01:30:04.583Z,100338.66
2023-05-22T01:31:02.445Z,100340.06
2023-05-22T01:31:39.540Z,100341.97
2023-05-22T01:32:14.899Z,100334.63
2023-05-22T01:32:50.782Z,100335.13
2023-05-22T01:33:26.383Z,100339.75
2023-05-22T01:34:02.837Z,100332.44
2023-05-22T01:34:39.514Z,100329.72
2023-05-22T01:35:15.541Z,100333.50
2023-05-22T01:35:51.813Z,100335.44
2023-05-22T01:36:31.810Z,100322.66
2023-05-22T01:37:06.357Z,100326.50
2023-05-22T01:37:39.908Z,100333.50
2023-05-22T01:38:15.281Z,100328.09
2023-05-22T01:38:48.209Z,100330.53
2023-05-22T01:39:23.149Z,100331.34
2023-05-22T01:39:58.820Z,100330.53
2023-05-22T01:40:31.839Z,100328.91
2023-05-22T01:41:05.046Z,100328.91
2023-05-22T01:41:40.574Z,100328.63
2023-05-22T01:42:13.150Z,100332.16
2023-05-22T01:42:46.048Z,100333.78
2023-05-22T01:43:21.581Z,100331.34
2023-05-22T01:43:54.089Z,100321.31
2023-05-22T01:44:27.137Z,100328.34
2023-05-22T01:45:03.874Z,100331.06
2023-05-22T01:45:36.325Z,100328.34
2023-05-22T01:46:11.246Z,100328.34
2023-05-22T01:46:46.379Z,100327.53
2023-05-22T01:47:19.232Z,100325.09
2023-05-22T01:47:51.588Z,100326.72
2023-05-22T01:48:26.455Z,100323.69
2023-05-22T01:48:59.078Z,100322.94
2023-05-22T01:49:32.508Z,100328.34
2023-05-22T01:50:08.317Z,100330.53
2023-05-22T01:50:42.462Z,100330.81
2023-05-22T01:51:24.171Z,100323.47
2023-05-22T01:54:46.546Z,100328.25
2023-05-22T01:55:27.761Z,100319.31
2023-05-22T01:56:06.737Z,100322.50
2023-05-22T01:56:49.694Z,100329.88
2023-05-22T01:57:27.731Z,100324.72
2023-05-22T01:58:09.814Z,100316.88
2023-05-22T01:58:52.762Z,100326.91
2023-05-22T01:59:33.262Z,100324.50
2023-05-22T02:00:10.096Z,100319.97
2023-05-22T02:00:54.904Z,100331.63
2023-05-22T02:01:32.827Z,100329.44
2023-05-22T02:02:07.768Z,100322.41
2023-05-22T02:02:46.768Z,100327.25
2023-05-22T02:03:22.611Z,100324.00
2023-05-22T02:03:58.443Z,100328.63
2023-05-22T02:04:31.859Z,100331.06
2023-05-22T02:05:08.511Z,100324.53
2023-05-22T02:05:42.807Z,100329.16
2023-05-22T02:06:15.598Z,100328.34
2023-05-22T02:06:51.345Z,100333.75
2023-05-22T02:07:25.235Z,100327.84
2023-05-22T02:08:01.395Z,100327.84
2023-05-22T02:08:37.203Z,100327.84
2023-05-22T02:09:11.273Z,100325.41
2023-05-22T02:09:46.281Z,100328.13
2023-05-22T02:10:23.389Z,100326.22
2023-05-22T02:10:57.011Z,100331.91
2023-05-22T02:11:31.471Z,100334.63
2023-05-22T02:12:07.198Z,100327.56
2023-05-22T02:12:40.024Z,100326.75
2023-05-22T02:13:12.821Z,100328.69
2023-05-22T02:13:47.735Z,100323.28
2023-05-22T02:14:20.651Z,100334.13
2023-05-22T02:14:53.110Z,100325.44
2023-05-22T02:15:28.952Z,100332.50
2023-05-22T02:16:01.643Z,100333.56
2023-05-22T02:16:38.285Z,100331.16
2023-05-22T02:17:14.067Z,100333.84
2023-05-22T02:17:49.931Z,100334.97
2023-05-22T02:18:29.688Z,100336.88
2023-05-22T02:19:06.790Z,100333.63
2023-05-22T02:19:39.928Z,100334.72
2023-05-22T02:20:15.413Z,100337.16
2023-05-22T02:20:51.831Z,100337.16
2023-05-22T02:21:24.011Z,100336.34
2023-05-22T02:21:56.288Z,100334.72
2023-05-22T02:22:31.509Z,100329.81
2023-05-22T02:23:03.692Z,100336.34
2023-05-22T02:23:36.015Z,100337.16
2023-05-22T02:24:10.848Z,100335.25
2023-05-22T02:24:46.385Z,100339.59
2023-05-22T02:25:19.870Z,100330.91
2023-05-22T02:25:55.697Z,100323.88
2023-05-22T02:26:28.458Z,100333.63
2023-05-22T02:27:01.748Z,100336.34
2023-05-22T02:27:36.603Z,100328.47
2023-05-22T02:28:09.832Z,100333.13
2023-05-22T02:28:43.101Z,100333.91
2023-05-22T02:29:18.368Z,100335.81
2023-05-22T02:29:51.318Z,100332.31
2023-05-22T02:30:23.742Z,100335.81
2023-05-22T02:31:00.837Z,100325.25
2023-05-22T02:31:35.646Z,100327.97
2023-05-22T02:32:08.911Z,100332.59
2023-05-22T02:32:41.930Z,100330.41
2023-05-22T02:33:18.280Z,100326.88
2023-05-22T02:33:50.538Z,100329.88
2023-05-22T02:34:22.955Z,100322.56
2023-05-22T02:34:58.812Z,100327.16
2023-05-22T02:35:30.997Z,100331.78
2023-05-22T02:36:06.180Z,100330.97
2023-05-22T02:36:38.410Z,100322.03
2023-05-22T02:37:10.663Z,100329.06
2023-05-22T02:37:45.572Z,100329.06
2023-05-22T02:38:18.810Z,100329.06
2023-05-22T02:38:51.029Z,100329.88
2023-05-22T02:39:25.824Z,100327.97
2023-05-22T02:39:58.047Z,100325.53
2023-05-22T02:40:30.514Z,100328.25
2023-05-22T02:41:05.489Z,100325.53
2023-05-22T02:41:38.015Z,100325.84
2023-05-22T02:42:10.705Z,100326.63
2023-05-22T02:42:46.269Z,100326.63
2023-05-22T02:43:18.955Z,100325.84
2023-05-22T02:43:51.201Z,100333.66
2023-05-22T02:44:26.053Z,100325.53
2023-05-22T02:44:58.261Z,100325.53
2023-05-22T02:45:34.567Z,100329.88
2023-05-22T02:46:06.866Z,100336.59
2023-05-22T02:46:41.748Z,100327.16
2023-05-22T02:47:16.804Z,100322.81
2023-05-22T02:47:49.037Z,100332.03
2023-05-22T02:48:24.267Z,100322.81
2023-05-22T02:48:57.304Z,100326.34
2023-05-22T02:49:29.564Z,100321.75
2023-05-22T02:50:04.362Z,100325.25
2023-05-22T02:50:38.425Z,100327.16
2023-05-22T02:51:10.759Z,100327.97
2023-05-22T02:51:48.023Z,100327.97
2023-05-22T02:52:21.116Z,100333.38
2023-05-22T02:52:53.389Z,100332.31
2023-05-22T02:53:28.216Z,100328.47
2023-05-22T02:54:00.457Z,100327.69
2023-05-22T02:54:32.794Z,100328.47
2023-05-22T02:55:08.418Z,100329.28
2023-05-22T02:55:42.028Z,100330.41
2023-05-22T02:56:14.221Z,100333.63
2023-05-22T02:56:48.974Z,100336.34
2023-05-22T02:57:21.252Z,100328.19
2023-05-22T02:57:53.780Z,100327.94
2023-05-22T02:58:28.596Z,100334.16
2023-05-22T02:59:00.768Z,100334.16
2023-05-22T02:59:33.192Z,100338.19
2023-05-22T03:00:11.804Z,100330.34
2023-05-22T03:00:44.031Z,100329.56
2023-05-22T03:01:16.271Z,100337.38
2023-05-22T03:01:54.683Z,100332.75
2023-05-22T03:02:29.908Z,100327.94
2023-05-22T03:03:02.364Z,100326.84
2023-05-22T03:03:37.614Z,100331.97
2023-05-22T03:04:09.952Z,100326.53
2023-05-22T03:04:42.273Z,100331.69
2023-05-22T03:05:18.298Z,100330.59
2023-05-22T03:05:53.944Z,100325.44
2023-05-22T03:06:26.099Z,100333.56
2023-05-22T03:07:01.812Z,100332.50
2023-05-22T03:07:35.137Z,100333.56
2023-05-22T03:08:07.581Z,100336.28
2023-05-22T03:08:43.820Z,100330.59
2023-05-22T03:09:16.537Z,100332.75
2023-05-22T03:09:48.731Z,100330.06
2023-05-22T03:10:23.523Z,100344.41
2023-05-22T03:10:56.955Z,100334.38
2023-05-22T03:11:29.269Z,100337.09
2023-05-22T03:12:05.120Z,100331.41
2023-05-22T03:12:37.316Z,100336.81
2023-05-22T03:13:09.576Z,100342.25
2023-05-22T03:13:44.459Z,100335.72
2023-05-22T03:14:16.725Z,100340.31
2023-05-22T03:14:48.888Z,100340.31
2023-05-22T03:15:23.762Z,100341.94
2023-05-22T03:16:00.126Z,100332.19
2023-05-22T03:16:33.136Z,100338.41
2023-05-22T03:17:10.673Z,100333.81
2023-05-22T03:17:42.905Z,100343.84
2023-05-22T03:18:15.104Z,100342.75
2023-05-22T03:18:50.914Z,100336.25
2023-05-22T03:19:23.441Z,100342.75
2023-05-22T03:19:58.587Z,100342.75
2023-05-22T03:20:34.165Z,100342.47
2023-05-22T03:21:06.957Z,100336.25
2023-05-22T03:21:39.665Z,100348.72
2023-05-22T03:22:15.038Z,100342.72
2023-05-22T03:22:47.516Z,100341.88
2023-05-22T03:23:21.335Z,100337.28
2023-05-22T03:23:56.298Z,100337.28
2023-05-22T03:24:28.461Z,100338.91
2023-05-22T03:25:04.173Z,100345.91
2023-05-22T03:25:36.487Z,100342.44
2023-05-22T03:26:08.745Z,100342.13
2023-05-22T03:26:45.634Z,100341.31
2023-05-22T03:27:23.975Z,100340.50
2023-05-22T03:27:56.306Z,100347.53
2023-05-22T03:28:32.570Z,100348.06
2023-05-22T03:29:04.889Z,100344.56
2023-05-22T03:29:37.309Z,100353.50
2023-05-22T03:30:10.401Z,100350.78
2023-05-22T03:30:47.753Z,100350.78
2023-05-22T03:31:27.425Z,100347.53
2023-05-22T03:32:12.778Z,100344.84
2023-05-22T03:32:45.112Z,100346.72
2023-05-22T03:33:17.569Z,100352.69
2023-05-22T03:33:49.937Z,100350.47
2023-05-22T03:34:27.566Z,100353.19
2023-05-22T03:35:00.355Z,100347.78
2023-05-22T03:35:32.586Z,100358.06
2023-05-22T03:36:09.831Z,100348.84
2023-05-22T03:36:45.406Z,100348.84
2023-05-22T03:37:20.709Z,100342.59
2023-05-22T03:37:52.921Z,100342.31
2023-05-22T03:38:27.815Z,100347.44
2023-05-22T03:39:00.358Z,100338.50
2023-05-22T03:39:32.882Z,100343.13
2023-05-22T03:40:14.504Z,100342.59
2023-05-22T03:40:46.672Z,100336.06
2023-05-22T03:41:19.796Z,100343.91
2023-05-22T03:41:54.792Z,100337.41
2023-05-22T03:42:28.961Z,100347.16
2023-05-22T03:43:02.314Z,100337.91
2023-05-22T03:43:37.077Z,100340.34
2023-05-22T03:44:09.824Z,100341.16
2023-05-22T03:44:42.009Z,100334.34
2023-05-22T03:45:16.854Z,100337.63
2023-05-22T03:45:49.234Z,100336.53
2023-05-22T03:46:21.747Z,100330.03
2023-05-22T03:46:56.654Z,100342.19
2023-05-22T03:47:31.643Z,100340.28
2023-05-22T03:48:04.517Z,100336.47
2023-05-22T03:48:39.600Z,100335.34
2023-05-22T03:49:11.807Z,100336.47
2023-05-22T03:49:43.997Z,100331.56
2023-05-22T03:50:19.796Z,100343.22
2023-05-22T03:50:52.051Z,100338.88
2023-05-22T03:51:24.291Z,100342.94
2023-05-22T03:51:59.158Z,100341.03
2023-05-22T03:52:31.478Z,100341.03
2023-05-22T03:53:03.783Z,100335.63
2023-05-22T03:53:39.048Z,100335.31
2023-05-22T03:54:11.645Z,100339.91
2023-05-22T03:54:43.887Z,100338.03
2023-05-22T03:55:19.224Z,100343.16
2023-05-22T03:55:52.180Z,100333.13
2023-05-22T03:56:24.372Z,100341.25
2023-05-22T03:56:59.237Z,100337.16
2023-05-22T03:57:31.410Z,100339.06
2023-05-22T03:58:03.638Z,100339.06
2023-05-22T03:58:35.833Z,100341.50
2023-05-22T03:59:10.601Z,100341.22
2023-05-22T03:59:42.786Z,100338.78
2023-05-22T04:00:17.308Z,100345.50
2023-05-22T04:00:53.131Z,100340.41
2023-05-22T04:01:25.339Z,100334.97
2023-05-22T04:01:58.265Z,100344.72
2023-05-22T04:02:36.225Z,100343.91
2023-05-22T04:03:13.152Z,100331.72
2023-05-22T04:03:48.116Z,100342.56
2023-05-22T04:04:20.289Z,100340.97
2023-05-22T04:04:52.494Z,100343.38
2023-05-22T04:05:27.602Z,100338.50
2023-05-22T04:06:00.061Z,100340.41
2023-05-22T04:06:33.236Z,100342.03
2023-05-22T04:07:08.542Z,100342.81
2023-05-22T04:07:40.894Z,100342.53
2023-05-22T04:08:13.182Z,100344.41
2023-05-22T04:08:47.919Z,100344.94
2023-05-22T04:09:20.181Z,100346.56
2023-05-22T04:09:52.345Z,100348.16
2023-05-22T04:10:27.093Z,100345.47
2023-05-22T04:10:59.396Z,100348.97
2023-05-22T04:11:32.310Z,100347.63
2023-05-22T04:12:08.109Z,100350.31
2023-05-22T04:12:40.526Z,100339.75
2023-05-22T04:13:13.105Z,100350.31
2023-05-22T04:13:48.417Z,100346.81
2023-05-22T04:14:20.598Z,100347.06
2023-05-22T04:14:52.803Z,100347.06
2023-05-22T04:15:27.768Z,100345.47
2023-05-22T04:16:02.193Z,100341.94
2023-05-22T04:16:35.104Z,100345.47
2023-05-22T04:17:11.801Z,100351.69
2023-05-22T04:17:47.575Z,100346.56
2023-05-22T04:18:19.809Z,100342.75
2023-05-22T04:18:54.773Z,100339.75
2023-05-22T04:19:28.420Z,100338.13
2023-05-22T04:20:01.047Z,100347.06
2023-05-22T04:20:36.139Z,100346.00
2023-05-22T04:21:09.962Z,100346.00
2023-05-22T04:21:42.698Z,100340.25
2023-05-22T04:22:18.802Z,100339.97
2023-05-22T04:22:51.093Z,100341.59
2023-05-22T04:23:23.273Z,100339.69
2023-05-22T04:23:55.475Z,100345.94
2023-05-22T04:24:30.321Z,100333.97
2023-05-22T04:25:05.835Z,100335.88
2023-05-22T04:25:38.136Z,100337.78
2023-05-22T04:26:13.392Z,100341.31
2023-05-22T04:26:45.610Z,100336.69
2023-05-22T04:27:18.441Z,100334.78
2023-05-22T04:27:53.530Z,100335.31
2023-05-22T04:28:26.927Z,100333.41
2023-05-22T04:28:59.138Z,100333.41
2023-05-22T04:29:36.553Z,100334.22
2023-05-22T04:30:10.716Z,100332.59
2023-05-22T04:30:44.775Z,100330.97
2023-05-22T04:31:19.528Z,100340.72
2023-05-22T04:31:54.645Z,100329.06
2023-05-22T04:32:27.771Z,100329.88
2023-05-22T04:33:05.873Z,100333.91
2023-05-22T04:33:38.856Z,100329.88
2023-05-22T04:34:13.075Z,100329.59
2023-05-22T04:34:50.592Z,100330.38
2023-05-22T04:35:22.842Z,100340.13
2023-05-22T04:35:55.037Z,100339.03
2023-05-22T04:36:31.336Z,100335.25
2023-05-22T04:37:03.868Z,100339.56
2023-05-22T04:37:36.590Z,100339.25
2023-05-22T04:38:11.463Z,100335.47
2023-05-22T04:38:45.017Z,100333.28
2023-05-22T04:39:17.420Z,100334.88
2023-05-22T04:39:53.100Z,100331.88
2023-05-22T04:40:26.538Z,100324.56
2023-05-22T04:40:58.731Z,100332.41
2023-05-22T04:41:34.492Z,100331.28
2023-05-22T04:42:06.887Z,100325.84
2023-05-22T04:42:39.549Z,100329.09
2023-05-22T04:43:14.391Z,100327.19
2023-05-22T04:43:48.576Z,100329.91
2023-05-22T04:44:23.210Z,100332.63
2023-05-22T04:45:00.442Z,100328.00
2023-05-22T04:45:33.151Z,100330.72
2023-05-22T04:46:05.759Z,100328.78
2023-05-22T04:46:40.808Z,100330.41
2023-05-22T04:47:14.668Z,100328.50
2023-05-22T04:47:47.185Z,100322.28
2023-05-22T04:48:24.729Z,100336.38
2023-05-22T04:48:56.890Z,100337.19
2023-05-22T04:49:29.141Z,100328.72
2023-05-22T04:50:04.093Z,100327.63
2023-05-22T04:50:39.040Z,100333.59
2023-05-22T04:51:13.125Z,100328.97
2023-05-22T04:51:47.899Z,100331.69
2023-05-22T04:52:20.083Z,100326.25
2023-05-22T04:52:53.758Z,100330.88
2023-05-22T04:53:29.147Z,100322.41
2023-05-22T04:54:01.524Z,100319.72
2023-05-22T04:54:34.073Z,100330.28
2023-05-22T04:55:12.232Z,100325.66
2023-05-22T04:55:46.258Z,100327.28
2023-05-22T04:56:31.855Z,100326.16
2023-05-22T04:57:10.139Z,100322.13
2023-05-22T04:57:44.812Z,100323.44
2023-05-22T04:58:17.041Z,100328.59
2023-05-22T04:58:54.123Z,100315.56
2023-05-22T04:59:26.791Z,100328.00
2023-05-22T04:59:59.087Z,100320.38
2023-05-22T05:00:34.068Z,100320.91
2023-05-22T05:01:06.427Z,100325.22
2023-05-22T05:01:38.943Z,100324.94
2023-05-22T05:02:13.765Z,100320.00
2023-05-22T05:02:46.151Z,100316.19
2023-05-22T05:03:21.280Z,100312.38
2023-05-22T05:03:56.408Z,100314.81
2023-05-22T05:04:28.710Z,100320.25
2023-05-22T05:05:03.599Z,100317.22
2023-05-22T05:05:35.849Z,100319.66
2023-05-22T05:06:08.655Z,100319.38
2023-05-22T05:06:43.447Z,100326.09
2023-05-22T05:07:17.861Z,100325.00
2023-05-22T05:07:51.894Z,100318.47
2023-05-22T05:08:26.705Z,100324.72
2023-05-22T05:08:59.048Z,100319.78
2023-05-22T05:09:33.891Z,100321.13
2023-05-22T05:10:08.451Z,100320.81
2023-05-22T05:10:40.946Z,100325.94
2023-05-22T05:11:16.087Z,100318.31
2023-05-22T05:11:49.547Z,100319.66
2023-05-22T05:12:21.908Z,100326.41
2023-05-22T05:12:56.809Z,100320.41
2023-05-22T05:13:29.049Z,100320.09
2023-05-22T05:14:01.412Z,100321.41
2023-05-22T05:14:36.945Z,100316.47
2023-05-22T05:15:10.292Z,100322.44
2023-05-22T05:15:42.590Z,100321.03
2023-05-22T05:16:17.422Z,100319.31
2023-05-22T05:16:51.984Z,100320.13
2023-05-22T05:17:24.198Z,100320.66
2023-05-22T05:17:59.033Z,100325.78
2023-05-22T05:18:31.352Z,100327.41
2023-05-22T05:19:08.824Z,100324.06
2023-05-22T05:19:41.296Z,100324.88
2023-05-22T05:20:16.215Z,100326.50
2023-05-22T05:20:48.550Z,100321.88
2023-05-22T05:21:21.590Z,100327.84
2023-05-22T05:21:56.396Z,100330.25
2023-05-22T05:22:29.371Z,100322.63
2023-05-22T05:23:01.866Z,100329.66
2023-05-22T05:23:36.840Z,100326.63
2023-05-22T05:24:09.333Z,100330.97
2023-05-22T05:24:41.681Z,100327.97
2023-05-22T05:25:16.963Z,100325.75
2023-05-22T05:25:49.365Z,100327.34
2023-05-22T05:26:24.150Z,100326.25
2023-05-22T05:26:59.073Z,100321.63
2023-05-22T05:27:45.426Z,100320.22
2023-05-22T05:28:20.716Z,100326.19
2023-05-22T05:28:53.413Z,100328.28
2023-05-22T05:29:25.925Z,100321.94
2023-05-22T05:30:10.953Z,100331.41
2023-05-22T05:31:32.133Z,100321.16
2023-05-22T05:32:25.599Z,100329.28
2023-05-22T05:33:16.453Z,100330.59
2023-05-22T05:34:04.706Z,100324.59
2023-05-22T05:34:56.923Z,100322.69
2023-05-22T05:35:50.508Z,100325.41
2023-05-22T05:36:25.473Z,100318.53
2023-05-22T05:37:00.641Z,100323.69
2023-05-22T05:37:32.817Z,100321.44
2023-05-22T05:38:09.827Z,100323.59
2023-05-22T05:38:44.342Z,100324.69
2023-05-22T05:39:18.003Z,100321.38
2023-05-22T05:39:52.794Z,100323.78
2023-05-22T05:40:25.625Z,100326.19
2023-05-22T05:41:01.497Z,100318.56
2023-05-22T05:41:33.926Z,100322.09
2023-05-22T05:42:14.378Z,100321.78
2023-05-22T05:42:46.668Z,100323.09
2023-05-22T05:43:20.396Z,100319.28
2023-05-22T05:43:57.607Z,100319.75
2023-05-22T05:44:31.136Z,100322.47
2023-05-22T05:45:04.383Z,100320.28
2023-05-22T05:45:40.211Z,100320.00
2023-05-22T05:46:13.087Z,100316.94
2023-05-22T05:46:46.754Z,100319.38
2023-05-22T05:47:24.351Z,100319.88
2023-05-22T05:47:57.085Z,100311.69
2023-05-22T05:48:29.488Z,100311.13
2023-05-22T05:49:10.226Z,100314.34
2023-05-22T05:49:44.820Z,100308.09
2023-05-22T05:50:23.227Z,100310.25
2023-05-22T05:50:55.652Z,100312.16
2023-05-22T05:51:28.289Z,100310.72
2023-05-22T05:52:03.177Z,100318.31
2023-05-22T05:52:35.942Z,100311.72
2023-05-22T05:53:16.691Z,100316.06
2023-05-22T05:53:54.325Z,100304.09
2023-05-22T05:54:29.139Z,100308.44
2023-05-22T05:55:06.890Z,100312.75
2023-05-22T05:55:39.353Z,100315.97
2023-05-22T05:56:15.216Z,100313.78
2023-05-22T05:56:47.947Z,100319.41
2023-05-22T05:57:20.221Z,100318.78
2023-05-22T05:57:55.051Z,100314.97
2023-05-22T05:58:34.279Z,100311.13
2023-05-22T05:59:27.956Z,100307.09
2023-05-22T06:00:14.711Z,100313.06
2023-05-22T06:00:49.415Z,100312.13
2023-05-22T06:01:25.281Z,100316.16
2023-05-22T06:01:58.274Z,100312.03
2023-05-22T06:02:36.305Z,100309.50
2023-05-22T06:03:08.755Z,100307.59
2023-05-22T06:04:05.896Z,100307.06
2023-05-22T06:04:39.765Z,100313.03
2023-05-22T06:05:15.929Z,100310.00
2023-05-22T06:05:51.407Z,100306.97
2023-05-22T06:06:37.225Z,100305.88
2023-05-22T06:07:32.486Z,100308.88
2023-05-22T06:08:08.946Z,100310.69
2023-05-22T06:08:42.459Z,100304.63
2023-05-22T06:09:15.127Z,100309.47
2023-05-22T06:10:09.024Z,100309.78
2023-05-22T06:11:00.582Z,100308.16
2023-05-22T06:11:45.859Z,100302.41
2023-05-22T06:12:18.597Z,100307.25
2023-05-22T06:12:51.179Z,100309.38
2023-05-22T06:13:26.045Z,100309.84
2023-05-22T06:13:59.591Z,100316.63
2023-05-22T06:14:33.522Z,100307.66
2023-05-22T06:15:10.215Z,100310.03
2023-05-22T06:15:42.606Z,100303.50
2023-05-22T06:16:14.918Z,100305.91
2023-05-22T06:16:50.160Z,100310.25
2023-05-22T06:17:23.276Z,100307.22
2023-05-22T06:17:55.648Z,100306.91
2023-05-22T06:18:31.024Z,100313.16
2023-05-22T06:19:04.866Z,100308.19
2023-05-22T06:19:37.529Z,100303.56
2023-05-22T06:20:15.568Z,100302.97
2023-05-22T06:20:50.515Z,100304.56
2023-05-22T06:21:22.749Z,100299.28
2023-05-22T06:21:57.819Z,100308.47
2023-05-22T06:22:30.364Z,100301.31
2023-05-22T06:23:06.438Z,100311.28
2023-05-22T06:23:38.708Z,100303.31
2023-05-22T06:24:13.506Z,100296.13
2023-05-22T06:24:45.752Z,100309.94
2023-05-22T06:25:26.215Z,100310.91
2023-05-22T06:25:59.142Z,100300.53
2023-05-22T06:26:32.036Z,100303.72
2023-05-22T06:27:07.140Z,100300.72
2023-05-22T06:27:39.802Z,100304.72
2023-05-22T06:28:11.962Z,100309.06
2023-05-22T06:28:47.189Z,100311.19
2023-05-22T06:29:19.524Z,100306.84
2023-05-22T06:29:56.561Z,100310.06
2023-05-22T06:30:39.525Z,100307.84
2023-05-22T06:31:18.870Z,100304.31
2023-05-22T06:31:53.804Z,100305.09
2023-05-22T06:32:29.854Z,100308.31
2023-05-22T06:33:02.212Z,100299.84
2023-05-22T06:33:35.371Z,100308.00
2023-05-22T06:34:10.998Z,100305.78
2023-05-22T06:34:44.536Z,100299.19
2023-05-22T06:35:20.203Z,100303.53
2023-05-22T06:35:55.838Z,100300.53
2023-05-22T06:36:31.249Z,100295.88
2023-05-22T06:37:04.025Z,100299.41
2023-05-22T06:37:43.343Z,100305.34
2023-05-22T06:38:18.549Z,100297.97
2023-05-22T06:38:52.094Z,100299.25
2023-05-22T06:39:46.895Z,100296.06
2023-05-22T06:40:27.685Z,100297.66
2023-05-22T06:41:08.510Z,100296.53
2023-05-22T06:41:40.854Z,100296.22
2023-05-22T06:42:15.839Z,100294.31
2023-05-22T06:43:09.221Z,100293.50
2023-05-22T06:43:50.844Z,100289.97
2023-05-22T06:44:32.111Z,100287.41
2023-05-22T06:45:09.894Z,100293.38
2023-05-22T06:45:51.849Z,100289.53